Ana Sayfa
METAR-TAF:

METAR-TAF

Havaalanları :

Bowman Field

Louisville, Kentucky, Amerika Birleşik Devletleri

Enlem: 38-13-40N, Boylam: 085-39-49W, yükseklik: 166 m

Güncel hava durumu gözlemi

Rapor saat 23:53 UTC de 29 dakika önce yapıldı.
Rüzgar kuzeydoğudan 8 kt
Sıcaklık 23°C
Nem 61%
Basınç 1019 hPa
Görüş mesafesi: 16.1 km
Açık gökyüzü

METAR: KLOU 232353Z 05008KT 10SM CLR 23/15 A3010 RMK AO2 SLP187 60003 T02280150 10244 20211 53002

Saat: 20:22 (00:22 UTC)


TAF: eksik

4.000'den fazla havaalanı için hava durumu gözlemleri ve tahminleri (METAR ve TAF raporları).

Kullanılabilir istasyonlar harita üzerinde sarı ve kırmızı noktalarla gösterilir.

İstasyonun adını görmek için fareyi noktanın üzerinde gezdirin.

Sonrasında hava gözlem ve tahminlerini görmek için tıklayın.

Haritayı değiştirmek için: yaklaştırmak için siyah artı işaretli yeşil düğmeye ve uzaklaştırmak için de eksi işaretli düğmeye hızla tıklayın; bitişik haritalar için yeşil okları kullanın.


METAR-TAF: